Terminal Aerodrome Forecast
Issued by NWS

Home | Current Version | Previous Version | Text Only | Print | Product List | Glossary On
Versions: 1 2 3 4 5 6 7 8 9 10 11 12 13 14 15 16 17 18 19 20
363
FTUS44 KLZK 280854 AAA
TAFBPK
TAF AMD
KBPK 280854Z 2809/2906 00000KT 1SM BR BKN002 OVC008
     FM281500 32006KT P6SM VCTS SCT050CB=

USA.gov is the U.S. government's official web portal to all federal, state and local government web resources and services.